Latest Weather Observations for Cape Bruny AWS

IDT60901

Issued at 8:15 am EDT Sunday 23 November 2014 (issued every 10 minutes, with the page automatically refreshed every 10 minutes)

About weather observations | Map of Hobart area stations | Latest observations for Hobart area | Other Formats
Station Details ID: 094198 Name: CAPE BRUNY (CAPE BRUNY) Lat: -43.49 Lon: 147.14 Height: 59.7 m
Data from the previous 72 hours. | See also: Recent months at Cape Bruny AWS
Date/Time
EDT
Tmp

°C
App
Tmp
°C
Dew
Point
°C
Rel
Hum
%
Delta-T

°C
Wind Press
QNH
hPa
Press
MSL
hPa
Rain
since
9 am
mm
Dir
 
Spd
km/h
Gust
km/h
Spd
kts
Gust
kts
23/08:12am 14.6 7.9 7.4 62 3.6 W 32 50 17 27 1006.8 1006.8 0.8
23/08:00am 15.2 9.1 8.2 63 3.5 W 30 37 16 20 1006.6 1006.6 0.8
23/07:30am 14.7 8.1 8.4 66 3.2 W 33 41 18 22 1006.2 1006.2 0.8
23/07:00am 14.5 7.6 8.9 69 2.9 W 35 39 19 21 1005.8 1005.8 0.8
23/06:30am 13.8 7.8 8.6 71 2.6 WNW 30 37 16 20 1005.4 1005.4 0.8
23/06:00am 13.7 7.3 8.7 72 2.5 W 32 37 17 20 1005.0 1005.0 0.8
23/05:30am 13.1 8.6 10.1 82 1.6 W 24 30 13 16 1004.7 1004.7 0.8
23/05:00am 12.7 9.2 10.1 84 1.3 WSW 19 24 10 13 1004.3 1004.2 0.8
23/04:30am 13.2 10.0 11.3 88 1.0 SW 19 26 10 14 1004.1 1004.0 0.8
23/04:00am 13.3 10.2 11.7 90 0.9 SW 19 26 10 14 1003.8 1003.7 0.8
23/03:30am 13.4 10.4 11.8 90 0.9 SW 19 30 10 16 1003.6 1003.5 0.8
23/03:00am 13.6 12.4 11.7 88 1.0 SSE 9 13 5 7 1003.8 1003.7 0.8
23/02:30am 13.8 12.9 11.5 86 1.2 SSE 7 11 4 6 1003.7 1003.6 0.8
23/02:00am 13.5 12.6 11.4 87 1.1 W 7 11 4 6 1003.6 1003.5 0.8
23/01:30am 13.6 13.0 11.8 89 1.0 SW 6 9 3 5 1003.5 1003.4 0.8
23/01:00am 13.6 12.1 11.8 89 1.0 W 11 15 6 8 1003.6 1003.5 0.8
23/12:30am 13.8 11.9 11.8 88 1.1 W 13 17 7 9 1003.4 1003.3 0.8
23/12:00am 14.2 11.9 11.7 85 1.3 WNW 15 17 8 9 1003.4 1003.3 0.8
 
Date/Time
EDT
Tmp

°C
App
Tmp
°C
Dew
Point
°C
Rel
Hum
%
Delta-T

°C
Wind Press
QNH
hPa
Press
MSL
hPa
Rain
since
9 am
mm
Dir
 
Spd
km/h
Gust
km/h
Spd
kts
Gust
kts
22/11:30pm 14.3 13.4 11.3 82 1.6 WNW 7 11 4 6 1003.5 1003.4 0.8
22/11:00pm 14.5 13.7 11.1 80 1.8 E 6 7 3 4 1003.5 1003.4 0.8
22/10:30pm 14.1 14.5 11.3 83 1.5 CALM 0 0 0 0 1003.5 1003.4 0.8
22/10:00pm 13.9 13.0 11.2 84 1.4 ESE 7 11 4 6 1003.5 1003.4 0.8
22/09:30pm 14.1 13.4 11.3 83 1.5 E 6 9 3 5 1003.5 1003.4 0.8
22/09:00pm 14.5 14.2 11.3 81 1.7 ENE 4 9 2 5 1003.5 1003.4 0.8
22/08:30pm 14.5 14.2 11.5 82 1.6 ENE 4 7 2 4 1003.7 1003.6 0.8
22/08:00pm 14.6 13.8 11.2 80 1.8 E 6 9 3 5 1004.0 1003.9 0.8
22/07:30pm 16.3 13.8 11.0 71 2.8 NW 15 39 8 21 1003.7 1003.6 0.6
22/07:00pm 16.8 10.5 10.9 68 3.2 W 35 43 19 23 1003.3 1003.2 0.6
22/06:52pm 16.4 11.1 11.1 71 2.9 W 30 43 16 23 1003.5 1003.4 0.6
22/06:30pm 16.3 13.1 11.2 72 2.7 NW 19 22 10 12 1003.3 1003.2 0.6
22/06:00pm 17.2 12.9 10.6 65 3.5 NW 24 30 13 16 1003.0 1002.9 0.6
22/05:30pm 16.9 12.7 11.0 68 3.2 NW 24 32 13 17 1003.1 1003.0 0.6
22/05:06pm 16.5 11.0 10.6 68 3.1 WNW 30 48 16 26 1003.1 1003.0 0.4
22/05:00pm 16.3 10.0 11.0 71 2.9 WNW 35 50 19 27 1003.1 1003.0 0.4
22/04:30pm 18.7 12.0 9.8 56 4.7 NW 35 48 19 26 1003.2 1003.1 0.0
22/04:24pm 18.0 12.8 10.4 61 4.1 NW 28 48 15 26 1003.3 1003.2 0.0
22/04:00pm 17.2 15.4 12.1 72 2.8 NNW 13 20 7 11 1003.3 1003.2 0.0
22/03:30pm 19.1 17.5 10.1 56 4.8 W 9 13 5 7 1003.4 1003.3 0.0
22/03:00pm 20.9 19.4 10.7 52 5.6 W 9 15 5 8 1003.5 1003.4 0.0
22/02:30pm 21.1 18.9 10.9 52 5.6 WNW 13 17 7 9 1003.9 1003.8 0.0
22/02:00pm 18.6 13.3 9.9 57 4.7 NW 28 46 15 25 1004.2 1004.1 0.0
22/01:52pm 18.8 13.4 9.6 55 4.9 NW 28 46 15 25 1004.3 1004.2 0.0
22/01:30pm 18.1 13.6 10.2 60 4.2 NW 24 35 13 19 1004.5 1004.4 0.0
22/01:09pm 17.9 11.2 9.8 59 4.3 NW 35 54 19 29 1004.8 1004.8 0.0
22/01:00pm 18.0 10.2 9.6 58 4.4 NW 41 54 22 29 1004.7 1004.7 0.0
22/12:30pm 17.8 11.1 9.7 59 4.3 NW 35 48 19 26 1004.9 1004.9 0.0
22/12:27pm 17.7 10.9 9.3 58 4.4 NW 35 54 19 29 1004.9 1004.9 0.0
22/12:13pm 18.1 11.4 9.7 58 4.4 NW 35 48 19 26 1004.8 1004.8 0.0
22/12:00pm 17.7 13.3 9.1 57 4.5 NW 22 30 12 16 1005.1 1005.1 0.0
22/11:30am 18.1 14.0 7.8 51 5.3 N 19 26 10 14 1005.0 1005.0 0.0
22/11:00am 20.4 14.0 8.4 46 6.3 NW 32 41 17 22 1004.7 1004.7 0.0
22/10:30am 17.2 11.4 7.8 54 4.8 NW 28 39 15 21 1004.5 1004.4 0.0
22/10:00am 17.3 11.4 7.4 52 5.0 NW 28 43 15 23 1004.9 1004.9 0.0
22/09:30am 16.4 7.5 6.8 53 4.7 NW 43 54 23 29 1005.0 1005.0 0.0
22/09:00am 15.0 7.3 5.5 53 4.5 NW 35 46 19 25 1005.4 1005.4 0.4
22/08:30am 14.9 5.6 6.0 55 4.3 NW 44 57 24 31 1005.5 1005.5 0.4
22/08:00am 14.8 6.2 4.8 51 4.7 NW 39 57 21 31 1005.6 1005.6 0.4
22/07:33am 14.6 7.9 3.7 48 5.0 NW 28 46 15 25 1006.2 1006.2 0.4
22/07:30am 14.7 7.6 3.8 48 5.0 NW 30 46 16 25 1006.1 1006.1 0.4
22/07:15am 14.9 7.8 3.7 47 5.1 NW 30 50 16 27 1005.9 1005.9 0.4
22/07:00am 14.5 8.2 3.9 49 4.9 WNW 26 35 14 19 1005.8 1005.8 0.4
22/06:30am 12.6 8.2 4.8 59 3.6 N 17 24 9 13 1005.5 1005.5 0.4
22/06:00am 12.5 7.9 5.4 62 3.3 N 19 26 10 14 1005.2 1005.2 0.4
22/05:30am 10.7 7.3 5.9 72 2.2 NE 13 19 7 10 1005.1 1005.1 0.4
22/05:00am 11.3 8.1 5.2 66 2.8 N 11 20 6 11 1005.0 1005.0 0.4
22/04:30am 11.6 7.1 5.9 68 2.7 NNE 19 28 10 15 1004.9 1004.9 0.4
22/04:00am 11.1 6.8 6.8 75 2.1 N 19 24 10 13 1004.9 1004.9 0.4
22/03:30am 10.2 7.5 5.8 74 2.0 NE 9 15 5 8 1005.5 1005.5 0.4
22/03:00am 10.6 6.9 6.4 75 2.0 ENE 15 20 8 11 1005.7 1005.7 0.4
22/02:30am 10.8 8.3 6.7 76 1.9 ENE 9 15 5 8 1006.2 1006.2 0.4
22/02:00am 11.3 6.8 6.8 74 2.1 NNE 20 28 11 15 1006.5 1006.5 0.4
22/01:30am 11.3 6.8 6.8 74 2.1 NNE 20 28 11 15 1007.0 1007.0 0.4
22/01:00am 11.0 6.6 6.6 74 2.1 N 19 24 10 13 1007.5 1007.5 0.4
22/12:30am 11.2 7.1 6.3 72 2.3 N 17 22 9 12 1007.9 1007.9 0.4
22/12:00am 11.2 6.6 6.3 72 2.3 NNE 20 32 11 17 1008.3 1008.3 0.4
 
Date/Time
EDT
Tmp

°C
App
Tmp
°C
Dew
Point
°C
Rel
Hum
%
Delta-T

°C
Wind Press
QNH
hPa
Press
MSL
hPa
Rain
since
9 am
mm
Dir
 
Spd
km/h
Gust
km/h
Spd
kts
Gust
kts
21/11:30pm 11.1 6.5 6.5 73 2.2 NNE 20 30 11 16 1008.9 1008.9 0.4
21/11:00pm 10.3 7.7 6.3 76 1.9 NE 9 13 5 7 1009.2 1009.2 0.4
21/10:30pm 10.1 6.0 6.3 77 1.8 NE 17 20 9 11 1009.1 1009.1 0.4
21/10:00pm 10.1 6.7 6.1 76 1.9 N 13 17 7 9 1009.5 1009.5 0.4
21/09:30pm 10.2 7.5 5.4 72 2.2 WSW 9 15 5 8 1008.9 1008.9 0.4
21/09:00pm 11.0 6.9 6.0 71 2.3 SW 17 22 9 12 1008.9 1008.9 0.4
21/08:30pm 10.7 7.3 5.7 71 2.3 SW 13 20 7 11 1008.7 1008.7 0.4
21/08:00pm 11.2 6.6 5.7 69 2.6 SW 19 30 10 16 1008.3 1008.3 0.4
21/07:30pm 11.9 6.0 5.8 66 2.9 WSW 26 35 14 19 1008.3 1008.3 0.4
21/07:00pm 12.3 6.0 5.7 64 3.1 SW 28 39 15 21 1007.6 1007.6 0.4
21/06:30pm 12.6 6.1 4.8 59 3.6 SW 28 35 15 19 1007.5 1007.5 0.4
21/06:00pm 13.7 8.0 6.8 63 3.4 SW 26 37 14 20 1007.4 1007.4 0.4
21/05:30pm 13.8 8.3 5.9 59 3.8 WSW 24 37 13 20 1007.1 1007.1 0.4
21/05:00pm 14.2 8.4 6.3 59 3.8 WSW 26 37 14 20 1006.9 1006.9 0.4
21/04:30pm 13.9 6.8 6.3 60 3.6 WSW 33 41 18 22 1006.8 1006.8 0.4
21/04:00pm 15.4 10.5 6.9 57 4.2 SW 22 32 12 17 1006.8 1006.8 0.4
21/03:30pm 14.0 8.7 6.8 62 3.5 WSW 24 35 13 19 1006.9 1006.9 0.4
21/03:00pm 13.2 6.2 5.9 61 3.5 WSW 32 41 17 22 1006.8 1006.8 0.4
21/02:30pm 13.0 6.7 5.7 61 3.4 WSW 28 39 15 21 1006.6 1006.6 0.4
21/02:00pm 12.8 6.5 5.7 62 3.3 WSW 28 43 15 23 1006.5 1006.5 0.4
21/01:30pm 12.7 6.0 5.6 62 3.3 WSW 30 37 16 20 1006.2 1006.2 0.4
21/01:00pm 13.2 7.1 6.5 64 3.2 WSW 28 37 15 20 1006.0 1006.0 0.4
21/12:30pm 12.3 5.1 5.7 64 3.1 WSW 33 46 18 25 1005.7 1005.7 0.4
21/12:00pm 12.1 4.0 5.3 63 3.2 WSW 37 50 20 27 1005.6 1005.6 0.4
21/11:30am 11.9 4.5 6.6 70 2.5 WSW 35 46 19 25 1005.4 1005.4 0.4
21/11:00am 10.7 5.3 8.1 84 1.3 SW 26 37 14 20 1005.3 1005.3 0.4
21/10:30am 10.8 5.2 8.6 86 1.1 WSW 28 37 15 20 1004.9 1004.9 0.4
21/10:00am 10.5 5.7 8.8 89 0.8 SW 24 35 13 19 1004.8 1004.8 0.4
21/09:30am 10.4 4.9 9.0 91 0.7 SW 28 37 15 20 1004.4 1004.3 0.4
21/09:00am 10.5 4.7 9.3 92 0.6 SW 30 41 16 22 1004.1 1004.0 4.4
21/08:30am 10.9 5.5 9.5 91 0.7 SW 28 39 15 21 1003.4 1003.3 4.4
21/08:00am 11.0 6.0 9.6 91 0.7 SW 26 35 14 19 1003.0 1002.9 4.4
21/07:30am 11.0 6.4 9.6 91 0.7 SW 24 32 13 17 1002.5 1002.4 4.4
21/07:00am 11.1 7.5 9.9 92 0.6 SW 19 28 10 15 1001.7 1001.7 4.4
21/06:30am 11.2 7.5 10.1 93 0.6 WSW 20 26 11 14 1001.3 1001.3 4.4
21/06:00am 11.4 6.6 10.3 93 0.6 WSW 26 33 14 18 1000.6 1000.6 4.2
21/05:30am 11.3 7.8 10.2 93 0.6 SW 19 24 10 13 1000.3 1000.3 4.2
21/05:00am 11.3 7.8 10.2 93 0.6 SW 19 26 10 14 1000.2 1000.2 4.2
21/04:30am 11.4 8.3 10.3 93 0.6 SW 17 24 9 13 1000.0 1000.0 4.0
21/04:00am 11.6 9.3 10.5 93 0.6 S 13 20 7 11 999.8 999.8 3.6
21/03:30am 12.0 10.9 10.7 92 0.7 SSW 7 13 4 7 999.6 999.6 2.6
21/03:00am 11.9 10.8 10.6 92 0.7 S 7 11 4 6 999.7 999.7 1.8
21/02:30am 12.0 11.1 10.7 92 0.7 SSW 6 9 3 5 999.8 999.8 1.8
21/02:00am 12.0 11.5 10.7 92 0.7 SSE 4 9 2 5 999.5 999.5 1.8
21/01:30am 12.2 10.8 10.9 92 0.7 SSW 9 11 5 6 999.6 999.6 1.8
21/01:00am 12.3 12.6 11.0 92 0.7 CALM 0 0 0 0 999.8 999.8 1.8
21/12:30am 12.2 12.5 10.9 92 0.7 CALM 0 0 0 0 1000.0 1000.0 1.8
21/12:00am 12.2 11.2 10.9 92 0.7 SE 7 9 4 5 999.8 999.8 1.8
 
Date/Time
EDT
Tmp

°C
App
Tmp
°C
Dew
Point
°C
Rel
Hum
%
Delta-T

°C
Wind Press
QNH
hPa
Press
MSL
hPa
Rain
since
9 am
mm
Dir
 
Spd
km/h
Gust
km/h
Spd
kts
Gust
kts
20/11:30pm 12.2 10.8 10.8 91 0.7 SSE 9 11 5 6 1000.2 1000.2 1.8
20/11:00pm 12.4 11.4 11.0 91 0.7 S 7 9 4 5 1000.5 1000.5 1.6
20/10:30pm 12.4 11.4 11.0 91 0.7 SE 7 9 4 5 1000.4 1000.4 0.8
20/10:00pm 12.4 10.3 11.0 91 0.7 S 13 17 7 9 1000.7 1000.7 0.4
20/09:30pm 12.5 11.1 10.9 90 0.8 S 9 11 5 6 1000.8 1000.8 0.0
20/09:00pm 12.6 11.5 10.8 89 0.9 SSE 7 9 4 5 1000.5 1000.5 0.0
20/08:30pm 12.9 11.8 10.8 87 1.1 SE 7 11 4 6 1000.5 1000.5 0.0
20/08:00pm 12.9 11.4 10.6 86 1.2 W 9 13 5 7 1000.6 1000.6 0.0
20/07:30pm 13.2 13.4 10.4 83 1.5 CALM 0 6 0 3 1000.2 1000.2 0.0
20/07:00pm 13.6 13.9 10.8 83 1.5 CALM 0 0 0 0 1000.4 1000.4 0.0
20/06:30pm 13.6 13.9 10.8 83 1.5 CALM 0 6 0 3 1000.5 1000.5 0.0
20/06:00pm 13.4 12.9 10.8 84 1.4 SE 4 9 2 5 1000.8 1000.8 0.0
20/05:30pm 13.4 10.8 10.8 84 1.4 ESE 15 22 8 12 1000.5 1000.5 0.0
20/05:00pm 13.2 10.9 10.6 84 1.4 SE 13 20 7 11 1001.0 1001.0 0.0
20/04:30pm 13.4 11.5 10.6 83 1.5 SSE 11 17 6 9 1001.4 1001.4 0.0
20/04:00pm 13.9 11.6 10.3 79 1.9 SE 13 22 7 12 1001.6 1001.6 0.0
20/03:30pm 14.7 12.6 11.1 79 1.9 SSE 13 19 7 10 1001.9 1001.8 0.0
20/03:00pm 14.5 11.3 11.1 80 1.8 ESE 19 22 10 12 1002.2 1002.1 0.0
20/02:30pm 14.4 12.3 11.0 80 1.8 SSE 13 19 7 10 1002.8 1002.7 0.0
20/02:00pm 15.2 12.5 11.8 80 1.9 S 17 24 9 13 1002.9 1002.8 0.0
20/01:30pm 14.1 10.7 10.7 80 1.8 S 19 26 10 14 1003.4 1003.3 0.0
20/01:00pm 14.4 11.8 10.8 79 1.9 SSE 15 24 8 13 1004.1 1004.0 0.0
20/12:30pm 14.4 11.1 11.0 80 1.8 SSE 19 24 10 13 1004.0 1003.9 0.0
20/12:00pm 14.4 11.5 11.0 80 1.8 S 17 20 9 11 1004.3 1004.2 0.0
20/11:30am 13.2 10.1 10.4 83 1.5 S 17 24 9 13 1004.7 1004.7 0.0
20/11:00am 13.1 10.8 10.6 85 1.3 S 13 22 7 12 1004.8 1004.8 0.0
20/10:30am 13.4 10.0 10.6 83 1.5 S 19 26 10 14 1005.0 1005.0 0.0
20/10:00am 14.5 11.5 9.3 71 2.7 SW 15 28 8 15 1005.0 1005.0 0.0
20/09:30am 15.1 11.5 6.9 58 4.0 N 15 24 8 13 1004.6 1004.6 0.0
20/09:00am 16.2 13.3 6.6 53 4.7 NNE 11 17 6 9 1004.6 1004.6 0.0
20/08:30am 15.8 13.8 7.3 57 4.2 NW 7 11 4 6 1004.8 1004.8 0.0

Latest Capital City Observations: Canberra | Sydney | Melbourne | Brisbane | Adelaide | Perth | Hobart | Darwin

Other Formats:

Comma delimited format used in spreadsheet applications
http://www.bom.gov.au/fwo/IDT60901/IDT60901.95967.axf

JavaScript Object Notation format (JSON) in row-major order
http://www.bom.gov.au/fwo/IDT60901/IDT60901.95967.json